sensor_id;sensor_type;location;lat;lon;timestamp;temperature;humidity
21834;DHT22;11079;51.092;3.458;2023-12-04T00:00:23;3.80;99.90
21834;DHT22;11079;51.092;3.458;2023-12-04T00:03:15;3.80;99.90
21834;DHT22;11079;51.092;3.458;2023-12-04T00:05:47;3.80;99.90
21834;DHT22;11079;51.092;3.458;2023-12-04T00:08:19;3.80;99.90
21834;DHT22;11079;51.092;3.458;2023-12-04T00:10:47;3.80;99.90
21834;DHT22;11079;51.092;3.458;2023-12-04T00:13:13;3.60;99.90
21834;DHT22;11079;51.092;3.458;2023-12-04T00:15:38;3.40;99.90
21834;DHT22;11079;51.092;3.458;2023-12-04T00:18:29;3.40;99.90
21834;DHT22;11079;51.092;3.458;2023-12-04T00:24:24;3.40;99.90
21834;DHT22;11079;51.092;3.458;2023-12-04T00:26:49;3.50;99.90
21834;DHT22;11079;51.092;3.458;2023-12-04T00:32:40;3.60;99.90
21834;DHT22;11079;51.092;3.458;2023-12-04T00:35:06;3.70;99.90
21834;DHT22;11079;51.092;3.458;2023-12-04T00:37:41;3.60;99.90
21834;DHT22;11079;51.092;3.458;2023-12-04T00:40:09;3.50;99.90
21834;DHT22;11079;51.092;3.458;2023-12-04T00:42:59;3.60;99.90
21834;DHT22;11079;51.092;3.458;2023-12-04T00:45:44;3.70;99.90
21834;DHT22;11079;51.092;3.458;2023-12-04T00:48:15;3.70;99.90
21834;DHT22;11079;51.092;3.458;2023-12-04T00:57:17;3.80;99.90
21834;DHT22;11079;51.092;3.458;2023-12-04T01:06:27;3.80;99.90
21834;DHT22;11079;51.092;3.458;2023-12-04T01:08:56;3.70;99.90
21834;DHT22;11079;51.092;3.458;2023-12-04T01:11:22;3.70;99.90
21834;DHT22;11079;51.092;3.458;2023-12-04T01:14:00;3.80;99.90
21834;DHT22;11079;51.092;3.458;2023-12-04T01:16:26;3.90;99.90
21834;DHT22;11079;51.092;3.458;2023-12-04T01:19:09;3.90;99.90
21834;DHT22;11079;51.092;3.458;2023-12-04T01:21:38;3.90;99.90
21834;DHT22;11079;51.092;3.458;2023-12-04T01:24:42;3.90;99.90
21834;DHT22;11079;51.092;3.458;2023-12-04T01:27:28;4.10;99.90
21834;DHT22;11079;51.092;3.458;2023-12-04T01:30:05;4.00;99.90
21834;DHT22;11079;51.092;3.458;2023-12-04T01:32:39;4.00;99.90
21834;DHT22;11079;51.092;3.458;2023-12-04T01:35:05;3.90;99.90
21834;DHT22;11079;51.092;3.458;2023-12-04T01:37:36;3.90;99.90
21834;DHT22;11079;51.092;3.458;2023-12-04T01:40:11;4.00;99.90
21834;DHT22;11079;51.092;3.458;2023-12-04T01:42:39;3.90;99.90
21834;DHT22;11079;51.092;3.458;2023-12-04T01:45:08;3.90;99.90
21834;DHT22;11079;51.092;3.458;2023-12-04T01:47:45;3.90;99.90
21834;DHT22;11079;51.092;3.458;2023-12-04T01:50:24;3.80;99.90
21834;DHT22;11079;51.092;3.458;2023-12-04T01:53:00;4.00;99.90
21834;DHT22;11079;51.092;3.458;2023-12-04T01:55:39;4.00;99.90
21834;DHT22;11079;51.092;3.458;2023-12-04T01:58:06;3.90;99.90
21834;DHT22;11079;51.092;3.458;2023-12-04T02:00:32;3.90;99.90
21834;DHT22;11079;51.092;3.458;2023-12-04T02:02:59;3.80;99.90
21834;DHT22;11079;51.092;3.458;2023-12-04T02:05:26;3.90;99.90
21834;DHT22;11079;51.092;3.458;2023-12-04T02:07:59;4.00;99.90
21834;DHT22;11079;51.092;3.458;2023-12-04T02:10:25;4.10;99.90
21834;DHT22;11079;51.092;3.458;2023-12-04T02:12:51;4.10;99.90
21834;DHT22;11079;51.092;3.458;2023-12-04T02:15:17;4.10;99.90
21834;DHT22;11079;51.092;3.458;2023-12-04T02:17:43;4.10;99.90
21834;DHT22;11079;51.092;3.458;2023-12-04T02:22:38;4.10;99.90
21834;DHT22;11079;51.092;3.458;2023-12-04T02:25:11;4.20;99.90
21834;DHT22;11079;51.092;3.458;2023-12-04T02:27:53;4.00;99.90
21834;DHT22;11079;51.092;3.458;2023-12-04T02:31:03;4.00;99.90
21834;DHT22;11079;51.092;3.458;2023-12-04T02:33:33;4.10;99.90
21834;DHT22;11079;51.092;3.458;2023-12-04T02:36:04;4.00;99.90
21834;DHT22;11079;51.092;3.458;2023-12-04T02:39:10;4.00;99.90
21834;DHT22;11079;51.092;3.458;2023-12-04T02:41:55;4.00;99.90
21834;DHT22;11079;51.092;3.458;2023-12-04T02:44:24;4.10;99.90
21834;DHT22;11079;51.092;3.458;2023-12-04T02:46:55;4.00;99.90
21834;DHT22;11079;51.092;3.458;2023-12-04T02:49:21;3.90;99.90
21834;DHT22;11079;51.092;3.458;2023-12-04T02:51:47;3.90;99.90
21834;DHT22;11079;51.092;3.458;2023-12-04T02:54:14;4.10;99.90
21834;DHT22;11079;51.092;3.458;2023-12-04T02:56:51;4.20;99.90
21834;DHT22;11079;51.092;3.458;2023-12-04T02:59:17;4.10;99.90
21834;DHT22;11079;51.092;3.458;2023-12-04T03:01:45;4.20;99.90
21834;DHT22;11079;51.092;3.458;2023-12-04T03:04:32;4.20;99.90
21834;DHT22;11079;51.092;3.458;2023-12-04T03:07:07;4.20;99.90
21834;DHT22;11079;51.092;3.458;2023-12-04T03:10:02;4.20;99.90
21834;DHT22;11079;51.092;3.458;2023-12-04T03:12:27;4.00;99.90
21834;DHT22;11079;51.092;3.458;2023-12-04T03:14:59;4.00;99.90
21834;DHT22;11079;51.092;3.458;2023-12-04T03:17:25;4.00;99.90
21834;DHT22;11079;51.092;3.458;2023-12-04T03:19:51;4.10;99.90
21834;DHT22;11079;51.092;3.458;2023-12-04T03:22:18;4.20;99.90
21834;DHT22;11079;51.092;3.458;2023-12-04T03:24:46;4.10;99.90
21834;DHT22;11079;51.092;3.458;2023-12-04T03:27:48;4.20;99.90
21834;DHT22;11079;51.092;3.458;2023-12-04T03:30:10;4.20;99.90
21834;DHT22;11079;51.092;3.458;2023-12-04T03:32:37;4.10;99.90
21834;DHT22;11079;51.092;3.458;2023-12-04T03:35:08;4.10;99.90
21834;DHT22;11079;51.092;3.458;2023-12-04T03:37:33;3.90;99.90
21834;DHT22;11079;51.092;3.458;2023-12-04T03:39:59;4.00;99.90
21834;DHT22;11079;51.092;3.458;2023-12-04T03:42:35;4.00;99.90
21834;DHT22;11079;51.092;3.458;2023-12-04T03:45:01;4.20;99.90
21834;DHT22;11079;51.092;3.458;2023-12-04T03:47:34;4.20;99.90
21834;DHT22;11079;51.092;3.458;2023-12-04T03:50:18;4.20;99.90
21834;DHT22;11079;51.092;3.458;2023-12-04T03:52:50;4.20;99.90
21834;DHT22;11079;51.092;3.458;2023-12-04T03:55:19;4.00;99.90
21834;DHT22;11079;51.092;3.458;2023-12-04T03:57:51;3.90;99.90
21834;DHT22;11079;51.092;3.458;2023-12-04T04:03:11;3.90;99.90
21834;DHT22;11079;51.092;3.458;2023-12-04T04:05:40;4.00;99.90
21834;DHT22;11079;51.092;3.458;2023-12-04T04:11:35;4.20;99.90
21834;DHT22;11079;51.092;3.458;2023-12-04T04:14:05;4.00;99.90
21834;DHT22;11079;51.092;3.458;2023-12-04T04:17:09;3.90;99.90
21834;DHT22;11079;51.092;3.458;2023-12-04T04:19:38;3.90;99.90
21834;DHT22;11079;51.092;3.458;2023-12-04T04:22:06;4.00;99.90
21834;DHT22;11079;51.092;3.458;2023-12-04T04:24:41;4.10;99.90
21834;DHT22;11079;51.092;3.458;2023-12-04T04:27:14;4.30;99.90
21834;DHT22;11079;51.092;3.458;2023-12-04T04:29:43;4.20;99.90
21834;DHT22;11079;51.092;3.458;2023-12-04T04:35:48;4.20;99.90
21834;DHT22;11079;51.092;3.458;2023-12-04T04:39:00;4.20;99.90
21834;DHT22;11079;51.092;3.458;2023-12-04T04:41:43;4.00;99.90
21834;DHT22;11079;51.092;3.458;2023-12-04T04:54:24;4.30;99.90
21834;DHT22;11079;51.092;3.458;2023-12-04T04:56:54;4.50;99.90
21834;DHT22;11079;51.092;3.458;2023-12-04T04:59:20;4.40;99.90
21834;DHT22;11079;51.092;3.458;2023-12-04T05:02:13;4.50;99.90
21834;DHT22;11079;51.092;3.458;2023-12-04T05:04:39;4.40;99.90
21834;DHT22;11079;51.092;3.458;2023-12-04T05:07:07;4.50;99.90
21834;DHT22;11079;51.092;3.458;2023-12-04T05:09:45;4.40;99.90
21834;DHT22;11079;51.092;3.458;2023-12-04T05:15:50;4.40;99.90
21834;DHT22;11079;51.092;3.458;2023-12-04T05:18:19;4.50;99.90
21834;DHT22;11079;51.092;3.458;2023-12-04T05:20:54;4.40;99.90
21834;DHT22;11079;51.092;3.458;2023-12-04T05:23:26;4.60;99.90
21834;DHT22;11079;51.092;3.458;2023-12-04T05:25:52;4.70;99.90
21834;DHT22;11079;51.092;3.458;2023-12-04T05:28:20;4.60;99.90
21834;DHT22;11079;51.092;3.458;2023-12-04T05:30:56;4.60;99.90
21834;DHT22;11079;51.092;3.458;2023-12-04T05:33:27;4.80;99.90
21834;DHT22;11079;51.092;3.458;2023-12-04T05:35:56;4.70;99.90
21834;DHT22;11079;51.092;3.458;2023-12-04T05:38:23;4.70;99.90
21834;DHT22;11079;51.092;3.458;2023-12-04T05:40:48;4.70;99.90
21834;DHT22;11079;51.092;3.458;2023-12-04T05:43:14;4.70;99.90
21834;DHT22;11079;51.092;3.458;2023-12-04T05:45:57;4.60;99.90
21834;DHT22;11079;51.092;3.458;2023-12-04T05:48:23;4.50;99.90
21834;DHT22;11079;51.092;3.458;2023-12-04T05:50:52;4.60;99.90
21834;DHT22;11079;51.092;3.458;2023-12-04T05:53:18;4.70;99.90
21834;DHT22;11079;51.092;3.458;2023-12-04T05:55:47;4.70;99.90
21834;DHT22;11079;51.092;3.458;2023-12-04T05:58:12;4.40;99.90
21834;DHT22;11079;51.092;3.458;2023-12-04T06:00:59;4.60;99.90
21834;DHT22;11079;51.092;3.458;2023-12-04T06:03:28;4.70;99.90
21834;DHT22;11079;51.092;3.458;2023-12-04T06:05:53;4.70;99.90
21834;DHT22;11079;51.092;3.458;2023-12-04T06:08:49;4.70;99.90
21834;DHT22;11079;51.092;3.458;2023-12-04T06:11:16;4.70;99.90
21834;DHT22;11079;51.092;3.458;2023-12-04T06:13:41;4.50;99.90
21834;DHT22;11079;51.092;3.458;2023-12-04T06:16:07;4.60;99.90
21834;DHT22;11079;51.092;3.458;2023-12-04T06:18:45;4.50;99.90
21834;DHT22;11079;51.092;3.458;2023-12-04T06:21:16;4.40;99.90
21834;DHT22;11079;51.092;3.458;2023-12-04T06:24:08;4.40;99.90
21834;DHT22;11079;51.092;3.458;2023-12-04T06:27:16;4.40;99.90
21834;DHT22;11079;51.092;3.458;2023-12-04T06:29:51;4.40;99.90
21834;DHT22;11079;51.092;3.458;2023-12-04T06:32:23;4.30;99.90
21834;DHT22;11079;51.092;3.458;2023-12-04T06:34:49;4.30;99.90
21834;DHT22;11079;51.092;3.458;2023-12-04T06:37:29;4.30;99.90
21834;DHT22;11079;51.092;3.458;2023-12-04T06:40:01;4.20;99.90
21834;DHT22;11079;51.092;3.458;2023-12-04T06:42:32;4.30;99.90
21834;DHT22;11079;51.092;3.458;2023-12-04T06:44:58;4.30;99.90
21834;DHT22;11079;51.092;3.458;2023-12-04T06:47:24;4.20;99.90
21834;DHT22;11079;51.092;3.458;2023-12-04T06:49:51;4.10;99.90
21834;DHT22;11079;51.092;3.458;2023-12-04T06:52:25;4.10;99.90
21834;DHT22;11079;51.092;3.458;2023-12-04T06:54:54;4.10;99.90
21834;DHT22;11079;51.092;3.458;2023-12-04T06:57:22;4.20;99.90
21834;DHT22;11079;51.092;3.458;2023-12-04T06:59:52;4.10;99.90
21834;DHT22;11079;51.092;3.458;2023-12-04T07:02:29;4.10;99.90
21834;DHT22;11079;51.092;3.458;2023-12-04T07:05:22;4.20;99.90
21834;DHT22;11079;51.092;3.458;2023-12-04T07:07:50;4.10;99.90
21834;DHT22;11079;51.092;3.458;2023-12-04T07:10:16;4.10;99.90
21834;DHT22;11079;51.092;3.458;2023-12-04T07:13:06;4.10;99.90
21834;DHT22;11079;51.092;3.458;2023-12-04T07:15:32;4.00;99.90
21834;DHT22;11079;51.092;3.458;2023-12-04T07:18:00;4.10;99.90
21834;DHT22;11079;51.092;3.458;2023-12-04T07:20:34;4.00;99.90
21834;DHT22;11079;51.092;3.458;2023-12-04T07:23:00;3.90;99.90
21834;DHT22;11079;51.092;3.458;2023-12-04T07:25:28;3.70;99.90
21834;DHT22;11079;51.092;3.458;2023-12-04T07:27:54;3.80;99.90
21834;DHT22;11079;51.092;3.458;2023-12-04T07:30:23;3.70;99.90
21834;DHT22;11079;51.092;3.458;2023-12-04T07:32:59;3.60;99.90
21834;DHT22;11079;51.092;3.458;2023-12-04T07:35:28;3.50;99.90
21834;DHT22;11079;51.092;3.458;2023-12-04T07:37:53;3.40;99.90
21834;DHT22;11079;51.092;3.458;2023-12-04T07:40:20;3.30;99.90
21834;DHT22;11079;51.092;3.458;2023-12-04T07:42:48;3.30;99.90
21834;DHT22;11079;51.092;3.458;2023-12-04T07:45:14;3.30;99.90
21834;DHT22;11079;51.092;3.458;2023-12-04T07:47:41;3.20;99.90
21834;DHT22;11079;51.092;3.458;2023-12-04T07:53:11;3.20;99.90
21834;DHT22;11079;51.092;3.458;2023-12-04T07:55:38;3.20;99.90
21834;DHT22;11079;51.092;3.458;2023-12-04T07:58:04;3.20;99.90
21834;DHT22;11079;51.092;3.458;2023-12-04T08:00:31;3.20;99.90
21834;DHT22;11079;51.092;3.458;2023-12-04T08:02:57;3.20;99.90
21834;DHT22;11079;51.092;3.458;2023-12-04T08:05:26;3.10;99.90
21834;DHT22;11079;51.092;3.458;2023-12-04T08:07:52;3.20;99.90
21834;DHT22;11079;51.092;3.458;2023-12-04T08:10:18;3.30;99.90
21834;DHT22;11079;51.092;3.458;2023-12-04T08:12:47;3.30;99.90
21834;DHT22;11079;51.092;3.458;2023-12-04T08:15:12;3.30;99.90
21834;DHT22;11079;51.092;3.458;2023-12-04T08:17:38;3.30;99.90
21834;DHT22;11079;51.092;3.458;2023-12-04T08:20:04;3.30;99.90
21834;DHT22;11079;51.092;3.458;2023-12-04T08:22:31;3.50;99.90
21834;DHT22;11079;51.092;3.458;2023-12-04T08:24:57;3.50;99.90
21834;DHT22;11079;51.092;3.458;2023-12-04T08:27:24;3.40;99.90
21834;DHT22;11079;51.092;3.458;2023-12-04T08:29:50;3.40;99.90
21834;DHT22;11079;51.092;3.458;2023-12-04T08:32:15;3.50;99.90
21834;DHT22;11079;51.092;3.458;2023-12-04T08:34:41;3.40;99.90
21834;DHT22;11079;51.092;3.458;2023-12-04T08:37:06;3.40;99.90
21834;DHT22;11079;51.092;3.458;2023-12-04T08:39:32;3.40;99.90
21834;DHT22;11079;51.092;3.458;2023-12-04T08:41:58;3.30;99.90
21834;DHT22;11079;51.092;3.458;2023-12-04T08:44:23;3.30;99.90
21834;DHT22;11079;51.092;3.458;2023-12-04T08:46:49;3.40;99.90
21834;DHT22;11079;51.092;3.458;2023-12-04T08:49:15;3.40;99.90
21834;DHT22;11079;51.092;3.458;2023-12-04T08:51:41;3.30;99.90
21834;DHT22;11079;51.092;3.458;2023-12-04T08:54:07;3.40;99.90
21834;DHT22;11079;51.092;3.458;2023-12-04T08:56:33;3.30;99.90
21834;DHT22;11079;51.092;3.458;2023-12-04T08:59:00;3.30;99.90
21834;DHT22;11079;51.092;3.458;2023-12-04T09:01:25;3.30;99.90
21834;DHT22;11079;51.092;3.458;2023-12-04T09:03:52;3.30;99.90
21834;DHT22;11079;51.092;3.458;2023-12-04T09:06:17;3.30;99.90
21834;DHT22;11079;51.092;3.458;2023-12-04T09:08:43;3.20;99.90
21834;DHT22;11079;51.092;3.458;2023-12-04T09:11:10;3.20;99.90
21834;DHT22;11079;51.092;3.458;2023-12-04T09:13:36;3.20;99.90
21834;DHT22;11079;51.092;3.458;2023-12-04T09:16:02;3.30;99.90
21834;DHT22;11079;51.092;3.458;2023-12-04T09:18:28;3.30;99.90
21834;DHT22;11079;51.092;3.458;2023-12-04T09:20:54;3.50;99.90
21834;DHT22;11079;51.092;3.458;2023-12-04T09:23:20;3.30;99.90
21834;DHT22;11079;51.092;3.458;2023-12-04T09:25:46;3.40;99.90
21834;DHT22;11079;51.092;3.458;2023-12-04T09:28:11;3.40;99.90
21834;DHT22;11079;51.092;3.458;2023-12-04T09:30:37;3.40;99.90
21834;DHT22;11079;51.092;3.458;2023-12-04T09:33:03;3.30;99.90
21834;DHT22;11079;51.092;3.458;2023-12-04T09:35:28;3.40;99.90
21834;DHT22;11079;51.092;3.458;2023-12-04T09:37:54;3.40;99.90
21834;DHT22;11079;51.092;3.458;2023-12-04T09:40:20;3.30;99.90
21834;DHT22;11079;51.092;3.458;2023-12-04T09:42:46;3.40;99.90
21834;DHT22;11079;51.092;3.458;2023-12-04T09:45:12;3.30;99.90
21834;DHT22;11079;51.092;3.458;2023-12-04T09:47:38;3.40;99.90
21834;DHT22;11079;51.092;3.458;2023-12-04T09:50:06;3.30;99.90
21834;DHT22;11079;51.092;3.458;2023-12-04T09:52:34;3.40;99.90
21834;DHT22;11079;51.092;3.458;2023-12-04T09:55:01;3.30;99.90
21834;DHT22;11079;51.092;3.458;2023-12-04T09:57:26;3.40;99.90
21834;DHT22;11079;51.092;3.458;2023-12-04T09:59:53;3.40;99.90
21834;DHT22;11079;51.092;3.458;2023-12-04T10:02:20;3.50;99.90
21834;DHT22;11079;51.092;3.458;2023-12-04T10:04:47;3.40;99.90
21834;DHT22;11079;51.092;3.458;2023-12-04T10:07:13;3.40;99.90
21834;DHT22;11079;51.092;3.458;2023-12-04T10:09:57;3.40;99.90
21834;DHT22;11079;51.092;3.458;2023-12-04T10:12:25;3.40;99.90
21834;DHT22;11079;51.092;3.458;2023-12-04T10:15:15;3.50;99.90
21834;DHT22;11079;51.092;3.458;2023-12-04T10:17:42;3.50;99.90
21834;DHT22;11079;51.092;3.458;2023-12-04T10:20:16;3.50;99.90
21834;DHT22;11079;51.092;3.458;2023-12-04T10:23:00;3.40;99.90
21834;DHT22;11079;51.092;3.458;2023-12-04T10:25:33;3.40;99.90
21834;DHT22;11079;51.092;3.458;2023-12-04T10:28:10;3.40;99.90
21834;DHT22;11079;51.092;3.458;2023-12-04T10:30:36;3.20;99.90
21834;DHT22;11079;51.092;3.458;2023-12-04T10:36:42;3.20;99.90
21834;DHT22;11079;51.092;3.458;2023-12-04T10:39:12;3.30;99.90
21834;DHT22;11079;51.092;3.458;2023-12-04T10:41:44;3.30;99.90
21834;DHT22;11079;51.092;3.458;2023-12-04T10:44:26;3.50;99.90
21834;DHT22;11079;51.092;3.458;2023-12-04T10:46:53;3.40;99.90
21834;DHT22;11079;51.092;3.458;2023-12-04T10:49:21;3.40;99.90
21834;DHT22;11079;51.092;3.458;2023-12-04T10:51:50;3.50;99.90
21834;DHT22;11079;51.092;3.458;2023-12-04T10:54:16;3.50;99.90
21834;DHT22;11079;51.092;3.458;2023-12-04T10:56:42;3.70;99.90
21834;DHT22;11079;51.092;3.458;2023-12-04T10:59:18;3.70;99.90
21834;DHT22;11079;51.092;3.458;2023-12-04T11:02:01;3.70;99.90
21834;DHT22;11079;51.092;3.458;2023-12-04T11:04:31;3.70;99.90
21834;DHT22;11079;51.092;3.458;2023-12-04T11:06:59;3.70;99.90
21834;DHT22;11079;51.092;3.458;2023-12-04T11:09:31;3.80;99.90
21834;DHT22;11079;51.092;3.458;2023-12-04T11:12:03;3.90;99.90
21834;DHT22;11079;51.092;3.458;2023-12-04T11:14:37;3.90;99.90
21834;DHT22;11079;51.092;3.458;2023-12-04T11:17:08;3.90;99.90
21834;DHT22;11079;51.092;3.458;2023-12-04T11:22:14;3.90;99.90
21834;DHT22;11079;51.092;3.458;2023-12-04T11:25:01;3.90;99.90
21834;DHT22;11079;51.092;3.458;2023-12-04T11:27:31;3.90;99.90
21834;DHT22;11079;51.092;3.458;2023-12-04T11:30:00;4.00;99.90
21834;DHT22;11079;51.092;3.458;2023-12-04T11:32:44;4.00;99.90
21834;DHT22;11079;51.092;3.458;2023-12-04T11:35:17;4.10;99.90
21834;DHT22;11079;51.092;3.458;2023-12-04T11:37:45;4.20;99.90
21834;DHT22;11079;51.092;3.458;2023-12-04T11:40:21;4.10;99.90
21834;DHT22;11079;51.092;3.458;2023-12-04T11:42:47;4.10;99.90
21834;DHT22;11079;51.092;3.458;2023-12-04T11:45:20;4.20;99.90
21834;DHT22;11079;51.092;3.458;2023-12-04T11:47:55;4.30;99.90
21834;DHT22;11079;51.092;3.458;2023-12-04T11:50:24;4.30;99.90
21834;DHT22;11079;51.092;3.458;2023-12-04T11:52:51;4.40;99.90
21834;DHT22;11079;51.092;3.458;2023-12-04T11:55:19;4.40;99.90
21834;DHT22;11079;51.092;3.458;2023-12-04T11:57:50;4.50;99.90
21834;DHT22;11079;51.092;3.458;2023-12-04T12:00:21;4.40;99.90
21834;DHT22;11079;51.092;3.458;2023-12-04T12:05:30;4.50;99.90
21834;DHT22;11079;51.092;3.458;2023-12-04T12:08:00;4.50;99.90
21834;DHT22;11079;51.092;3.458;2023-12-04T12:10:27;4.50;99.90
21834;DHT22;11079;51.092;3.458;2023-12-04T12:12:53;4.60;99.90
21834;DHT22;11079;51.092;3.458;2023-12-04T12:15:18;4.60;99.90
21834;DHT22;11079;51.092;3.458;2023-12-04T12:17:44;4.70;99.90
21834;DHT22;11079;51.092;3.458;2023-12-04T12:20:19;4.60;99.90
21834;DHT22;11079;51.092;3.458;2023-12-04T12:22:48;4.70;99.90
21834;DHT22;11079;51.092;3.458;2023-12-04T12:25:15;4.70;99.90
21834;DHT22;11079;51.092;3.458;2023-12-04T12:27:40;4.70;99.90
21834;DHT22;11079;51.092;3.458;2023-12-04T12:30:26;4.80;99.90
21834;DHT22;11079;51.092;3.458;2023-12-04T12:32:52;4.90;99.90
21834;DHT22;11079;51.092;3.458;2023-12-04T12:35:17;4.90;99.90
21834;DHT22;11079;51.092;3.458;2023-12-04T12:37:43;5.00;99.90
21834;DHT22;11079;51.092;3.458;2023-12-04T12:40:10;5.10;99.90
21834;DHT22;11079;51.092;3.458;2023-12-04T12:42:36;5.00;99.90
21834;DHT22;11079;51.092;3.458;2023-12-04T12:45:03;5.00;99.90
21834;DHT22;11079;51.092;3.458;2023-12-04T12:47:29;5.20;99.90
21834;DHT22;11079;51.092;3.458;2023-12-04T12:49:55;5.30;99.90
21834;DHT22;11079;51.092;3.458;2023-12-04T12:52:21;5.30;99.90
21834;DHT22;11079;51.092;3.458;2023-12-04T12:54:50;5.20;99.90
21834;DHT22;11079;51.092;3.458;2023-12-04T12:57:20;5.10;99.90
21834;DHT22;11079;51.092;3.458;2023-12-04T12:59:48;5.10;99.90
21834;DHT22;11079;51.092;3.458;2023-12-04T13:02:14;5.00;99.90
21834;DHT22;11079;51.092;3.458;2023-12-04T13:04:41;5.00;99.90
21834;DHT22;11079;51.092;3.458;2023-12-04T13:07:07;5.10;99.90
21834;DHT22;11079;51.092;3.458;2023-12-04T13:09:33;5.10;99.90
21834;DHT22;11079;51.092;3.458;2023-12-04T13:12:02;5.20;99.90
21834;DHT22;11079;51.092;3.458;2023-12-04T13:14:44;5.20;99.90
21834;DHT22;11079;51.092;3.458;2023-12-04T13:17:10;5.20;99.90
21834;DHT22;11079;51.092;3.458;2023-12-04T13:19:35;5.20;99.90
21834;DHT22;11079;51.092;3.458;2023-12-04T13:22:01;5.30;99.90
21834;DHT22;11079;51.092;3.458;2023-12-04T13:24:37;5.30;99.90
21834;DHT22;11079;51.092;3.458;2023-12-04T13:27:03;5.30;99.90
21834;DHT22;11079;51.092;3.458;2023-12-04T13:29:30;5.20;99.90
21834;DHT22;11079;51.092;3.458;2023-12-04T13:32:04;5.20;99.90
21834;DHT22;11079;51.092;3.458;2023-12-04T13:37:49;5.30;99.90
21834;DHT22;11079;51.092;3.458;2023-12-04T13:40:26;5.20;99.90
21834;DHT22;11079;51.092;3.458;2023-12-04T13:42:54;5.10;99.90
21834;DHT22;11079;51.092;3.458;2023-12-04T13:45:45;5.10;99.90
21834;DHT22;11079;51.092;3.458;2023-12-04T13:48:11;5.20;99.90
21834;DHT22;11079;51.092;3.458;2023-12-04T13:54:26;5.10;99.90
21834;DHT22;11079;51.092;3.458;2023-12-04T14:00:00;5.30;99.90
21834;DHT22;11079;51.092;3.458;2023-12-04T14:05:34;5.30;99.90
21834;DHT22;11079;51.092;3.458;2023-12-04T14:08:03;5.30;99.90
21834;DHT22;11079;51.092;3.458;2023-12-04T14:10:31;5.20;99.90
21834;DHT22;11079;51.092;3.458;2023-12-04T14:13:00;5.30;99.90
21834;DHT22;11079;51.092;3.458;2023-12-04T14:15:26;5.30;99.90
21834;DHT22;11079;51.092;3.458;2023-12-04T14:18:06;5.40;99.90
21834;DHT22;11079;51.092;3.458;2023-12-04T14:20:47;5.50;99.90
21834;DHT22;11079;51.092;3.458;2023-12-04T14:23:20;5.50;99.90
21834;DHT22;11079;51.092;3.458;2023-12-04T14:26:04;5.50;99.90
21834;DHT22;11079;51.092;3.458;2023-12-04T14:28:30;5.50;99.90
21834;DHT22;11079;51.092;3.458;2023-12-04T14:30:56;5.60;99.90
21834;DHT22;11079;51.092;3.458;2023-12-04T14:33:21;5.50;99.90
21834;DHT22;11079;51.092;3.458;2023-12-04T14:35:47;5.40;99.90
21834;DHT22;11079;51.092;3.458;2023-12-04T14:38:21;5.40;99.90
21834;DHT22;11079;51.092;3.458;2023-12-04T14:40:48;5.40;99.90
21834;DHT22;11079;51.092;3.458;2023-12-04T14:43:16;5.40;99.90
21834;DHT22;11079;51.092;3.458;2023-12-04T14:45:53;5.40;99.90
21834;DHT22;11079;51.092;3.458;2023-12-04T14:52:22;5.40;99.90
21834;DHT22;11079;51.092;3.458;2023-12-04T14:54:54;5.30;99.90
21834;DHT22;11079;51.092;3.458;2023-12-04T14:57:38;5.30;99.90
21834;DHT22;11079;51.092;3.458;2023-12-04T15:00:10;5.30;99.90
21834;DHT22;11079;51.092;3.458;2023-12-04T15:02:53;5.30;99.90
21834;DHT22;11079;51.092;3.458;2023-12-04T15:05:21;5.40;99.90
21834;DHT22;11079;51.092;3.458;2023-12-04T15:08:11;5.20;99.90
21834;DHT22;11079;51.092;3.458;2023-12-04T15:10:51;5.10;99.90
21834;DHT22;11079;51.092;3.458;2023-12-04T15:13:35;5.30;99.90
21834;DHT22;11079;51.092;3.458;2023-12-04T15:16:30;5.30;99.90
21834;DHT22;11079;51.092;3.458;2023-12-04T15:19:11;5.20;99.90
21834;DHT22;11079;51.092;3.458;2023-12-04T15:21:54;5.20;99.90
21834;DHT22;11079;51.092;3.458;2023-12-04T15:24:20;5.20;99.90
21834;DHT22;11079;51.092;3.458;2023-12-04T15:27:02;5.10;99.90
21834;DHT22;11079;51.092;3.458;2023-12-04T15:29:28;5.20;99.90
21834;DHT22;11079;51.092;3.458;2023-12-04T15:31:56;5.20;99.90
21834;DHT22;11079;51.092;3.458;2023-12-04T15:34:22;5.20;99.90
21834;DHT22;11079;51.092;3.458;2023-12-04T15:36:47;5.30;99.90
21834;DHT22;11079;51.092;3.458;2023-12-04T15:39:17;5.30;99.90
21834;DHT22;11079;51.092;3.458;2023-12-04T15:45:20;5.30;99.90
21834;DHT22;11079;51.092;3.458;2023-12-04T15:48:06;5.40;99.90
21834;DHT22;11079;51.092;3.458;2023-12-04T15:50:55;5.40;99.90
21834;DHT22;11079;51.092;3.458;2023-12-04T15:53:21;5.30;99.90
21834;DHT22;11079;51.092;3.458;2023-12-04T15:55:50;5.30;99.90
21834;DHT22;11079;51.092;3.458;2023-12-04T15:58:21;5.20;99.90
21834;DHT22;11079;51.092;3.458;2023-12-04T22:17:21;7.20;99.90
